createdAt,value
2018-03-14T00:04:19.442Z,6.80
2018-03-14T00:09:22.542Z,6.80
2018-03-14T00:14:25.650Z,6.90
2018-03-14T00:19:28.743Z,7.00
2018-03-14T00:24:31.555Z,7.00
2018-03-14T00:29:34.651Z,7.00
2018-03-14T00:34:37.828Z,6.90
2018-03-14T00:39:41.043Z,6.80
2018-03-14T00:45:04.023Z,6.90
2018-03-14T00:50:13.874Z,6.90
2018-03-14T00:55:23.086Z,6.90
2018-03-14T01:05:54.698Z,7.00
2018-03-14T01:11:16.909Z,6.90
2018-03-14T01:16:29.126Z,6.90
2018-03-14T01:21:43.751Z,6.80
2018-03-14T01:37:45.060Z,6.80
2018-03-14T01:43:04.442Z,6.80
2018-03-14T01:48:21.445Z,6.80
2018-03-14T01:53:30.029Z,6.80
2018-03-14T01:58:36.355Z,6.90
2018-03-14T02:03:41.257Z,6.80
2018-03-14T02:08:44.387Z,6.80
2018-03-14T02:13:48.432Z,6.80
2018-03-14T02:18:51.415Z,6.70
2018-03-14T02:23:54.811Z,6.70
2018-03-14T02:28:58.005Z,6.80
2018-03-14T02:34:01.213Z,6.70
2018-03-14T02:39:04.117Z,6.80
2018-03-14T02:44:10.379Z,6.70
2018-03-14T02:49:14.568Z,6.70
2018-03-14T02:54:18.376Z,6.70
2018-03-14T02:59:21.251Z,6.60
2018-03-14T03:04:25.174Z,6.70
2018-03-14T03:09:28.773Z,6.70
2018-03-14T03:14:31.592Z,6.80
2018-03-14T03:19:34.681Z,6.80
2018-03-14T03:24:37.564Z,6.90
2018-03-14T03:29:40.444Z,6.80
2018-03-14T03:34:44.173Z,6.80
2018-03-14T03:39:49.212Z,6.70
2018-03-14T03:45:05.603Z,6.80
2018-03-14T03:50:08.437Z,6.80
2018-03-14T03:55:11.304Z,6.70
2018-03-14T04:00:14.342Z,6.70
2018-03-14T04:05:18.044Z,6.60
2018-03-14T04:10:20.841Z,6.50
2018-03-14T04:15:23.577Z,6.60
2018-03-14T04:20:29.721Z,6.70
2018-03-14T04:25:38.235Z,6.50
2018-03-14T04:30:41.013Z,6.50
2018-03-14T04:35:43.862Z,6.60
2018-03-14T04:40:47.392Z,6.60
2018-03-14T04:45:50.453Z,6.50
2018-03-14T04:50:53.861Z,6.60
2018-03-14T04:55:56.937Z,6.60
2018-03-14T05:00:59.711Z,6.70
2018-03-14T05:06:02.506Z,6.70
2018-03-14T05:11:05.395Z,6.60
2018-03-14T05:16:09.876Z,6.50
2018-03-14T05:21:12.653Z,6.50
2018-03-14T05:26:15.934Z,6.60
2018-03-14T05:31:18.762Z,6.50
2018-03-14T05:36:22.485Z,6.60
2018-03-14T05:41:25.280Z,6.60
2018-03-14T05:46:29.765Z,6.50
2018-03-14T05:51:32.626Z,6.60
2018-03-14T05:56:35.423Z,6.60
2018-03-14T06:01:38.253Z,6.50
2018-03-14T06:06:41.094Z,6.60
2018-03-14T06:11:44.633Z,6.60
2018-03-14T06:16:47.394Z,6.50
2018-03-14T06:21:50.234Z,6.60
2018-03-14T06:26:53.620Z,6.60
2018-03-14T06:31:58.819Z,6.60
2018-03-14T06:37:01.942Z,6.60
2018-03-14T06:42:04.934Z,6.70
2018-03-14T06:47:07.953Z,6.70
2018-03-14T06:52:10.732Z,6.70
2018-03-14T06:57:13.524Z,6.80
2018-03-14T07:02:28.216Z,6.80
2018-03-14T07:07:30.968Z,6.90
2018-03-14T07:12:35.512Z,7.10
2018-03-14T07:17:39.070Z,7.20
2018-03-14T07:22:43.808Z,7.20
2018-03-14T07:27:46.786Z,7.30
2018-03-14T07:32:51.760Z,7.50
2018-03-14T07:37:54.578Z,7.50
2018-03-14T07:42:57.891Z,7.40
2018-03-14T07:48:00.646Z,7.50
2018-03-14T07:53:03.490Z,7.50
2018-03-14T07:58:06.228Z,7.40
2018-03-14T08:03:09.749Z,7.80
2018-03-14T08:08:13.479Z,7.90
2018-03-14T08:13:16.321Z,7.90
2018-03-14T08:18:19.139Z,8.10
2018-03-14T08:23:22.006Z,8.30
2018-03-14T08:28:24.800Z,8.60
2018-03-14T08:33:27.946Z,8.60
2018-03-14T08:38:30.748Z,8.90
2018-03-14T08:43:34.676Z,9.10
2018-03-14T08:48:37.953Z,9.00
2018-03-14T08:53:40.724Z,9.20
2018-03-14T08:58:43.519Z,9.40
2018-03-14T09:03:46.435Z,9.50
2018-03-14T09:08:49.486Z,9.50
2018-03-14T09:13:52.313Z,9.80
2018-03-14T09:18:56.094Z,10.00
2018-03-14T09:23:58.999Z,9.90
2018-03-14T09:29:01.939Z,10.30
2018-03-14T09:34:07.564Z,10.70
2018-03-14T09:39:10.936Z,10.60
2018-03-14T09:44:13.976Z,10.90
2018-03-14T09:49:16.826Z,10.80
2018-03-14T09:54:21.758Z,10.70
2018-03-14T09:59:25.407Z,10.60
2018-03-14T10:04:28.278Z,10.50
2018-03-14T10:09:31.967Z,10.80
2018-03-14T10:14:35.731Z,10.80
2018-03-14T10:19:39.418Z,11.40
2018-03-14T10:24:43.484Z,11.40
2018-03-14T10:29:47.329Z,12.70
2018-03-14T10:34:50.358Z,12.60
2018-03-14T10:39:53.268Z,12.60
2018-03-14T10:45:04.639Z,12.80
2018-03-14T10:50:07.838Z,13.10
2018-03-14T10:55:13.321Z,13.00
2018-03-14T11:00:23.093Z,14.40
2018-03-14T11:05:26.225Z,14.30
2018-03-14T11:10:29.129Z,14.20
2018-03-14T11:15:32.717Z,14.40
2018-03-14T11:20:36.445Z,14.20
2018-03-14T11:25:39.586Z,14.10
2018-03-14T11:30:43.337Z,14.20
2018-03-14T11:35:46.448Z,14.20
2018-03-14T11:41:03.617Z,13.60
2018-03-14T11:46:06.471Z,13.30
2018-03-14T11:51:10.010Z,13.40
2018-03-14T11:56:14.587Z,13.30
2018-03-14T12:01:26.887Z,13.20
2018-03-14T12:06:30.112Z,13.90
2018-03-14T12:11:35.291Z,13.40
2018-03-14T12:16:44.946Z,12.80
2018-03-14T12:21:48.309Z,12.80
2018-03-14T12:26:51.199Z,12.90
2018-03-14T12:31:54.214Z,13.60
2018-03-14T12:36:57.094Z,14.60
2018-03-14T12:42:00.104Z,15.50
2018-03-14T12:47:03.007Z,16.40
2018-03-14T12:52:06.722Z,17.30
2018-03-14T12:57:13.085Z,18.30
2018-03-14T13:02:16.620Z,16.90
2018-03-14T13:07:19.408Z,16.90
2018-03-14T13:12:23.027Z,15.50
2018-03-14T13:17:26.240Z,15.40
2018-03-14T13:22:29.078Z,14.80
2018-03-14T13:27:31.937Z,14.40
2018-03-14T13:32:34.748Z,14.30
2018-03-14T13:37:37.658Z,14.30
2018-03-14T13:42:40.505Z,14.50
2018-03-14T13:47:43.294Z,14.40
2018-03-14T13:52:46.221Z,14.30
2018-03-14T13:57:49.822Z,14.50
2018-03-14T14:02:52.583Z,14.40
2018-03-14T14:07:58.794Z,14.60
2018-03-14T14:13:01.580Z,14.30
2018-03-14T14:18:08.046Z,14.30
2018-03-14T14:23:10.882Z,14.00
2018-03-14T14:28:13.905Z,13.80
2018-03-14T14:33:16.979Z,13.60
2018-03-14T14:38:19.744Z,13.90
2018-03-14T14:43:22.549Z,13.70
2018-03-14T14:48:25.685Z,13.60
2018-03-14T14:53:28.732Z,13.70
2018-03-14T14:58:32.636Z,13.90
2018-03-14T15:03:35.687Z,13.90
2018-03-14T15:08:38.555Z,14.00
2018-03-14T15:13:42.224Z,14.20
2018-03-14T15:18:45.204Z,14.20
2018-03-14T15:23:50.028Z,14.00
2018-03-14T15:28:53.737Z,14.10
2018-03-14T15:33:57.916Z,14.10
2018-03-14T15:39:01.216Z,14.20
2018-03-14T15:44:04.171Z,14.30
2018-03-14T15:49:07.334Z,14.20
2018-03-14T15:54:10.357Z,14.10
2018-03-14T15:59:13.206Z,14.00
2018-03-14T16:04:17.293Z,13.10
2018-03-14T16:09:20.577Z,13.00
2018-03-14T16:14:23.784Z,12.70
2018-03-14T16:19:27.849Z,12.30
2018-03-14T16:24:31.012Z,12.10
2018-03-14T16:29:34.364Z,12.10
2018-03-14T16:34:37.480Z,11.90
2018-03-14T16:39:40.366Z,11.70
2018-03-14T16:44:43.624Z,11.70
2018-03-14T16:49:46.833Z,11.40
2018-03-14T16:54:50.536Z,11.10
2018-03-14T16:59:53.404Z,11.00
2018-03-14T17:04:56.182Z,10.80
2018-03-14T17:09:59.005Z,10.60
2018-03-14T17:15:01.815Z,10.30
2018-03-14T17:20:04.611Z,10.20
2018-03-14T17:25:07.597Z,10.00
2018-03-14T17:30:10.894Z,9.80
2018-03-14T17:35:13.950Z,9.60
2018-03-14T17:40:17.074Z,9.30
2018-03-14T17:45:20.954Z,8.70
2018-03-14T17:50:23.902Z,8.70
2018-03-14T17:55:27.587Z,8.40
2018-03-14T18:00:30.609Z,8.30
2018-03-14T18:05:33.660Z,8.20
2018-03-14T18:10:36.769Z,7.80
2018-03-14T18:15:39.894Z,7.40
2018-03-14T18:20:43.263Z,7.20
2018-03-14T18:25:46.670Z,7.20
2018-03-14T18:30:50.575Z,6.90
2018-03-14T18:35:53.768Z,6.80
2018-03-14T18:40:57.342Z,6.70
2018-03-14T18:46:00.250Z,6.50
2018-03-14T18:51:03.504Z,6.40
2018-03-14T18:56:07.747Z,6.40
2018-03-14T19:01:11.370Z,6.30
2018-03-14T19:06:15.210Z,6.20
2018-03-14T19:11:18.382Z,6.20
2018-03-14T19:16:21.608Z,6.20
2018-03-14T19:21:25.517Z,6.00
2018-03-14T19:26:28.566Z,5.90
2018-03-14T19:31:31.489Z,6.00
2018-03-14T19:36:34.977Z,6.10
2018-03-14T19:41:40.825Z,6.10
2018-03-14T19:46:44.780Z,6.10
2018-03-14T19:51:48.145Z,6.00
2018-03-14T19:56:51.236Z,6.00
2018-03-14T20:01:54.151Z,6.00
2018-03-14T20:06:57.255Z,5.90
2018-03-14T20:12:02.040Z,5.80
2018-03-14T20:17:30.431Z,5.60
2018-03-14T20:22:43.935Z,5.50
2018-03-14T20:27:49.578Z,5.60
2018-03-14T20:44:12.086Z,5.50
2018-03-14T20:49:21.516Z,5.40
2018-03-14T20:54:32.300Z,5.30
2018-03-14T20:59:38.925Z,5.60
2018-03-14T21:05:06.556Z,5.50
2018-03-14T21:10:17.373Z,5.40
2018-03-14T21:15:22.791Z,5.40
2018-03-14T21:20:27.326Z,5.40
2018-03-14T21:25:30.659Z,5.40
2018-03-14T21:30:33.426Z,5.30
2018-03-14T21:35:36.536Z,5.20
2018-03-14T21:40:39.801Z,5.10
2018-03-14T21:45:43.650Z,5.10
2018-03-14T21:50:46.769Z,5.00
2018-03-14T21:55:49.724Z,5.00
2018-03-14T22:00:53.008Z,5.10
2018-03-14T22:05:56.122Z,5.10
2018-03-14T22:10:59.539Z,5.10
2018-03-14T22:16:23.042Z,5.10
2018-03-14T22:27:16.592Z,4.90
2018-03-14T22:32:20.868Z,4.70
2018-03-14T22:37:23.681Z,4.60
2018-03-14T22:47:54.487Z,4.50
2018-03-14T22:52:58.798Z,4.40
2018-03-14T22:58:02.162Z,4.30
2018-03-14T23:03:05.361Z,4.30
2018-03-14T23:08:08.676Z,4.30
2018-03-14T23:13:12.193Z,4.30
2018-03-14T23:18:15.487Z,4.30
2018-03-14T23:23:43.903Z,4.10
2018-03-14T23:28:49.619Z,4.00
2018-03-14T23:34:02.643Z,4.00
2018-03-14T23:39:08.912Z,3.90
2018-03-14T23:44:13.456Z,3.80
2018-03-14T23:49:23.453Z,3.80
2018-03-14T23:54:30.848Z,3.80
2018-03-14T23:59:35.330Z,3.70
